South Haven, Minnesota
Current Conditions -  °F | °C
As of 2:55 AM on Sunday 23 Nov 2014 (Local Time) from KMGG Reporting Station
Drizzle Drizzle  
Wind Chill: 42°   Ceiling: 5500
Heat Index: 42°   Visibility: 1.5mi
Dew Point: 42°   Wind: 3mph
Humidity: 99%   Direction: 180°S
Pressure: 29.44"   Gusts: NA
Location:  45.29°N, 94.21°W
Report Text: KMGG 230855Z AUTO 18003KT 1 1/2SM -DZ SCT006 BKN055 OVC065 06/06 A2944 RMK AO2 T00560055
Loading
Personal Weather Stations






























Interactive Weather Map New forecast layout! Learn more

10-Day Weather Forecast

Advertisements
Track Severe Weather on mobile